createdAt,value
2018-02-08T00:00:53.476Z,-2.48
2018-02-08T00:01:56.906Z,-2.60
2018-02-08T00:02:59.852Z,-2.73
2018-02-08T00:04:02.801Z,-2.77
2018-02-08T00:05:05.720Z,-2.64
2018-02-08T00:06:08.688Z,-2.52
2018-02-08T00:07:11.628Z,-2.56
2018-02-08T00:08:14.995Z,-2.70
2018-02-08T00:09:17.964Z,-2.63
2018-02-08T00:10:20.938Z,-2.57
2018-02-08T00:11:24.828Z,-2.66
2018-02-08T00:12:27.750Z,-2.74
2018-02-08T00:13:30.691Z,-2.79
2018-02-08T00:14:34.051Z,-2.80
2018-02-08T00:15:36.980Z,-2.82
2018-02-08T00:16:39.883Z,-2.94
2018-02-08T00:17:42.835Z,-2.96
2018-02-08T00:18:45.784Z,-2.84
2018-02-08T00:19:48.727Z,-2.71
2018-02-08T00:20:52.158Z,-2.56
2018-02-08T00:21:55.051Z,-2.51
2018-02-08T00:22:58.034Z,-2.43
2018-02-08T00:24:00.973Z,-2.53
2018-02-08T00:25:03.886Z,-2.61
2018-02-08T00:26:06.743Z,-2.56
2018-02-08T00:27:09.957Z,-2.57
2018-02-08T00:28:12.867Z,-2.52
2018-02-08T00:29:15.871Z,-2.51
2018-02-08T00:30:18.792Z,-2.51
2018-02-08T00:31:21.892Z,-2.48
2018-02-08T00:32:24.790Z,-2.41
2018-02-08T00:33:28.091Z,-2.37
2018-02-08T00:34:30.961Z,-2.56
2018-02-08T00:35:33.833Z,-2.63
2018-02-08T00:36:36.728Z,-2.69
2018-02-08T00:37:39.582Z,-2.73
2018-02-08T00:38:42.479Z,-2.66
2018-02-08T00:39:45.836Z,-2.62
2018-02-08T00:40:48.705Z,-2.58
2018-02-08T00:41:51.569Z,-2.58
2018-02-08T00:42:54.477Z,-2.68
2018-02-08T00:43:57.342Z,-2.79
2018-02-08T00:45:00.236Z,-2.86
2018-02-08T00:46:03.594Z,-2.86
2018-02-08T00:47:06.523Z,-2.85
2018-02-08T00:48:09.492Z,-2.77
2018-02-08T00:49:12.451Z,-2.86
2018-02-08T00:50:15.417Z,-2.97
2018-02-08T00:51:18.349Z,-2.95
2018-02-08T00:52:21.637Z,-2.94
2018-02-08T00:53:24.577Z,-2.96
2018-02-08T00:54:27.521Z,-3.02
2018-02-08T00:55:30.436Z,-3.04
2018-02-08T00:56:33.414Z,-2.99
2018-02-08T00:57:36.344Z,-3.08
2018-02-08T00:58:39.674Z,-3.13
2018-02-08T00:59:42.631Z,-3.12
2018-02-08T01:00:45.595Z,-3.07
2018-02-08T01:01:48.536Z,-3.10
2018-02-08T01:02:51.464Z,-3.09
2018-02-08T01:03:54.435Z,-3.14
2018-02-08T01:04:57.726Z,-3.21
2018-02-08T01:06:00.637Z,-3.27
2018-02-08T01:07:03.588Z,-3.28
2018-02-08T01:08:06.599Z,-3.28
2018-02-08T01:09:09.553Z,-3.39
2018-02-08T01:10:12.523Z,-3.26
2018-02-08T01:11:15.755Z,-3.09
2018-02-08T01:12:18.762Z,-2.96
2018-02-08T01:13:21.756Z,-2.84
2018-02-08T01:14:24.707Z,-2.94
2018-02-08T01:15:27.687Z,-2.98
2018-02-08T01:16:30.531Z,-3.13
2018-02-08T01:17:33.351Z,-3.24
2018-02-08T01:18:36.177Z,-3.29
2018-02-08T01:19:39.084Z,-3.23
2018-02-08T01:20:41.961Z,-3.10
2018-02-08T01:21:44.807Z,-3.00
2018-02-08T01:22:47.702Z,-2.91
2018-02-08T01:23:50.969Z,-2.83
2018-02-08T01:24:53.785Z,-2.84
2018-02-08T01:25:56.599Z,-2.93
2018-02-08T01:26:59.403Z,-2.84
2018-02-08T01:28:02.320Z,-2.77
2018-02-08T01:29:05.292Z,-2.82
2018-02-08T01:30:08.850Z,-2.81
2018-02-08T01:31:11.799Z,-2.88
2018-02-08T01:32:14.703Z,-2.94
2018-02-08T01:33:17.671Z,-2.93
2018-02-08T01:34:20.522Z,-2.88
2018-02-08T01:35:23.347Z,-2.97
2018-02-08T01:36:26.651Z,-2.97
2018-02-08T01:37:29.581Z,-3.04
2018-02-08T01:38:32.535Z,-3.19
2018-02-08T01:39:35.543Z,-3.14
2018-02-08T01:40:38.472Z,-3.08
2018-02-08T01:41:41.383Z,-2.96
2018-02-08T01:42:44.634Z,-3.10
2018-02-08T01:43:47.590Z,-3.20
2018-02-08T01:44:50.521Z,-3.17
2018-02-08T01:45:53.424Z,-3.14
2018-02-08T01:46:56.378Z,-3.32
2018-02-08T01:47:59.271Z,-3.46
2018-02-08T01:49:02.676Z,-3.50
2018-02-08T01:50:05.678Z,-3.43
2018-02-08T01:51:08.609Z,-3.34
2018-02-08T01:52:11.631Z,-3.40
2018-02-08T01:53:14.550Z,-3.60
2018-02-08T01:54:17.465Z,-3.64
2018-02-08T01:55:20.702Z,-3.62
2018-02-08T01:56:23.675Z,-3.62
2018-02-08T01:57:26.562Z,-3.60
2018-02-08T01:58:29.505Z,-3.54
2018-02-08T01:59:32.449Z,-3.49
2018-02-08T02:00:35.373Z,-3.55
2018-02-08T02:01:38.846Z,-3.66
2018-02-08T02:02:41.945Z,-3.77
2018-02-08T02:03:44.856Z,-3.72
2018-02-08T02:04:47.813Z,-3.70
2018-02-08T02:05:50.754Z,-3.80
2018-02-08T02:06:53.702Z,-3.94
2018-02-08T02:07:56.964Z,-3.99
2018-02-08T02:08:59.901Z,-4.04
2018-02-08T02:10:02.842Z,-4.05
2018-02-08T02:11:05.828Z,-4.16
2018-02-08T02:12:08.739Z,-4.10
2018-02-08T02:13:11.644Z,-4.02
2018-02-08T02:14:14.900Z,-4.01
2018-02-08T02:15:17.838Z,-4.01
2018-02-08T02:16:20.752Z,-4.07
2018-02-08T02:17:23.669Z,-4.10
2018-02-08T02:18:26.606Z,-3.96
2018-02-08T02:19:29.527Z,-3.86
2018-02-08T02:20:32.813Z,-4.01
2018-02-08T02:21:35.772Z,-4.07
2018-02-08T02:22:38.715Z,-4.10
2018-02-08T02:23:41.671Z,-4.08
2018-02-08T02:24:44.597Z,-4.00
2018-02-08T02:25:47.557Z,-3.86
2018-02-08T02:26:50.866Z,-3.85
2018-02-08T02:27:53.822Z,-3.93
2018-02-08T02:28:57.573Z,-3.96
2018-02-08T02:30:00.976Z,-3.94
2018-02-08T02:31:04.440Z,-3.89
2018-02-08T02:32:08.205Z,-3.90
2018-02-08T02:33:11.569Z,-3.92
2018-02-08T02:34:14.588Z,-4.00
2018-02-08T02:35:17.529Z,-4.07
2018-02-08T02:36:20.451Z,-4.03
2018-02-08T02:37:23.380Z,-4.09
2018-02-08T02:38:26.396Z,-4.16
2018-02-08T02:39:29.782Z,-4.20
2018-02-08T02:40:32.723Z,-4.18
2018-02-08T02:41:35.604Z,-4.13
2018-02-08T02:42:38.545Z,-4.08
2018-02-08T02:43:41.547Z,-4.22
2018-02-08T02:44:44.483Z,-4.26
2018-02-08T02:45:47.896Z,-4.32
2018-02-08T02:46:50.817Z,-4.37
2018-02-08T02:47:53.771Z,-4.41
2018-02-08T02:48:56.722Z,-4.37
2018-02-08T02:49:59.775Z,-4.38
2018-02-08T02:51:02.726Z,-4.44
2018-02-08T02:52:05.681Z,-4.48
2018-02-08T02:53:08.633Z,-4.57
2018-02-08T02:54:11.672Z,-4.63
2018-02-08T02:55:14.660Z,-4.54
2018-02-08T02:56:17.694Z,-4.50
2018-02-08T02:57:20.633Z,-4.47
2018-02-08T02:58:24.009Z,-4.38
2018-02-08T02:59:26.940Z,-4.42
2018-02-08T03:00:29.915Z,-4.42
2018-02-08T03:01:32.872Z,-4.35
2018-02-08T03:02:35.868Z,-4.43
2018-02-08T03:03:38.919Z,-4.49
2018-02-08T03:04:42.286Z,-4.46
2018-02-08T03:05:45.256Z,-4.27
2018-02-08T03:06:48.224Z,-4.09
2018-02-08T03:07:51.161Z,-4.11
2018-02-08T03:08:54.114Z,-4.07
2018-02-08T03:09:57.138Z,-4.13
2018-02-08T03:11:00.586Z,-4.10
2018-02-08T03:12:03.541Z,-4.07
2018-02-08T03:13:06.513Z,-4.00
2018-02-08T03:14:09.451Z,-3.97
2018-02-08T03:15:12.450Z,-3.91
2018-02-08T03:16:15.390Z,-3.87
2018-02-08T03:17:18.824Z,-3.80
2018-02-08T03:18:21.783Z,-3.84
2018-02-08T03:19:24.789Z,-3.83
2018-02-08T03:20:27.711Z,-3.85
2018-02-08T03:21:30.759Z,-3.82
2018-02-08T03:22:33.719Z,-3.82
2018-02-08T03:23:37.130Z,-3.81
2018-02-08T03:24:40.106Z,-3.82
2018-02-08T03:25:43.058Z,-3.88
2018-02-08T03:26:46.027Z,-3.85
2018-02-08T03:27:48.967Z,-3.83
2018-02-08T03:28:52.097Z,-3.77
2018-02-08T03:29:55.548Z,-3.77
2018-02-08T03:30:58.675Z,-3.71
2018-02-08T03:32:01.726Z,-3.70
2018-02-08T03:33:04.680Z,-3.82
2018-02-08T03:34:07.616Z,-3.83
2018-02-08T03:35:10.559Z,-3.79
2018-02-08T03:36:13.992Z,-3.71
2018-02-08T03:37:16.910Z,-3.73
2018-02-08T03:38:19.864Z,-3.79
2018-02-08T03:39:22.807Z,-3.78
2018-02-08T03:40:25.777Z,-3.80
2018-02-08T03:41:28.695Z,-3.74
2018-02-08T03:42:32.080Z,-3.83
2018-02-08T03:43:35.017Z,-3.90
2018-02-08T03:44:37.900Z,-3.89
2018-02-08T03:45:40.765Z,-3.91
2018-02-08T03:46:43.682Z,-4.01
2018-02-08T03:47:46.642Z,-4.12
2018-02-08T03:48:49.896Z,-4.09
2018-02-08T03:49:52.866Z,-4.05
2018-02-08T03:50:55.815Z,-4.08
2018-02-08T03:51:58.752Z,-4.03
2018-02-08T03:53:01.695Z,-3.99
2018-02-08T03:54:04.698Z,-4.21
2018-02-08T03:55:07.930Z,-4.38
2018-02-08T03:56:10.869Z,-4.30
2018-02-08T03:57:13.823Z,-4.17
2018-02-08T03:58:16.785Z,-4.15
2018-02-08T03:59:19.704Z,-4.40
2018-02-08T04:00:22.666Z,-4.53
2018-02-08T04:01:25.996Z,-4.55
2018-02-08T04:02:28.946Z,-4.40
2018-02-08T04:03:31.875Z,-4.26
2018-02-08T04:04:34.827Z,-4.20
2018-02-08T04:05:37.946Z,-4.18
2018-02-08T04:06:40.864Z,-4.25
2018-02-08T04:07:44.272Z,-4.23
2018-02-08T04:08:47.212Z,-4.25
2018-02-08T04:09:50.159Z,-4.23
2018-02-08T04:10:53.083Z,-4.16
2018-02-08T04:11:56.028Z,-4.42
2018-02-08T04:12:58.999Z,-4.50
2018-02-08T04:14:02.381Z,-4.45
2018-02-08T04:15:05.379Z,-4.37
2018-02-08T04:16:08.322Z,-4.38
2018-02-08T04:17:11.329Z,-4.26
2018-02-08T04:18:14.271Z,-4.13
2018-02-08T04:19:17.898Z,-4.13
2018-02-08T04:20:21.232Z,-4.26
2018-02-08T04:21:24.164Z,-4.26
2018-02-08T04:22:27.083Z,-4.21
2018-02-08T04:23:30.059Z,-4.14
2018-02-08T04:24:33.017Z,-4.06
2018-02-08T04:25:35.966Z,-4.07
2018-02-08T04:26:39.254Z,-4.03
2018-02-08T04:27:42.226Z,-4.02
2018-02-08T04:28:45.176Z,-4.08
2018-02-08T04:29:48.147Z,-4.09
2018-02-08T04:30:51.106Z,-4.03
2018-02-08T04:31:54.024Z,-4.02
2018-02-08T04:32:57.287Z,-4.03
2018-02-08T04:34:00.257Z,-4.07
2018-02-08T04:35:03.209Z,-4.27
2018-02-08T04:36:06.150Z,-4.36
2018-02-08T04:37:09.352Z,-4.49
2018-02-08T04:38:12.304Z,-4.50
2018-02-08T04:39:15.618Z,-4.54
2018-02-08T04:40:18.570Z,-4.63
2018-02-08T04:41:21.488Z,-4.60
2018-02-08T04:42:24.439Z,-4.52
2018-02-08T04:43:27.404Z,-4.59
2018-02-08T04:44:30.426Z,-4.50
2018-02-08T04:45:33.807Z,-4.35
2018-02-08T04:46:36.763Z,-4.29
2018-02-08T04:47:39.783Z,-4.24
2018-02-08T04:48:42.788Z,-4.18
2018-02-08T04:49:45.731Z,-4.17
2018-02-08T04:50:48.738Z,-4.26
2018-02-08T04:51:52.134Z,-4.30
2018-02-08T04:52:55.059Z,-4.28
2018-02-08T04:53:58.015Z,-4.46
2018-02-08T04:55:00.982Z,-4.51
2018-02-08T04:56:03.938Z,-4.56
2018-02-08T04:57:06.855Z,-4.55
2018-02-08T04:58:10.161Z,-4.51
2018-02-08T04:59:13.092Z,-4.44
2018-02-08T05:00:16.057Z,-4.46
2018-02-08T05:01:19.020Z,-4.55
2018-02-08T05:02:22.122Z,-4.53
2018-02-08T05:03:25.079Z,-4.51
2018-02-08T05:04:28.526Z,-4.47
2018-02-08T05:05:31.571Z,-4.60
2018-02-08T05:06:34.515Z,-4.58
2018-02-08T05:07:37.496Z,-4.63
2018-02-08T05:08:40.433Z,-4.62
2018-02-08T05:09:43.441Z,-4.63
2018-02-08T05:10:46.908Z,-4.72
2018-02-08T05:11:49.900Z,-4.74
2018-02-08T05:12:52.866Z,-4.79
2018-02-08T05:13:55.901Z,-4.78
2018-02-08T05:14:58.835Z,-4.66
2018-02-08T05:16:01.808Z,-4.74
2018-02-08T05:17:06.511Z,-4.83
2018-02-08T05:18:09.479Z,-4.90
2018-02-08T05:19:12.708Z,-4.88
2018-02-08T05:20:15.651Z,-4.98
2018-02-08T05:21:18.613Z,-4.88
2018-02-08T05:22:21.537Z,-4.80
2018-02-08T05:23:24.843Z,-4.67
2018-02-08T05:24:27.830Z,-4.58
2018-02-08T05:25:30.798Z,-4.58
2018-02-08T05:26:33.776Z,-4.54
2018-02-08T05:27:36.776Z,-4.52
2018-02-08T05:28:39.799Z,-4.62
2018-02-08T05:29:43.241Z,-4.73
2018-02-08T05:30:46.175Z,-4.80
2018-02-08T05:31:49.121Z,-4.73
2018-02-08T05:32:52.060Z,-4.77
2018-02-08T05:33:55.081Z,-4.87
2018-02-08T05:34:58.034Z,-4.96
2018-02-08T05:36:01.340Z,-5.12
2018-02-08T05:37:04.271Z,-5.22
2018-02-08T05:38:07.296Z,-5.19
2018-02-08T05:39:10.240Z,-5.08
2018-02-08T05:40:13.252Z,-4.96
2018-02-08T05:41:16.198Z,-4.88
2018-02-08T05:42:19.567Z,-4.88
2018-02-08T05:43:22.442Z,-4.85
2018-02-08T05:44:25.313Z,-4.96
2018-02-08T05:45:28.171Z,-4.90
2018-02-08T05:46:31.037Z,-4.84
2018-02-08T05:47:33.892Z,-4.76
2018-02-08T05:48:37.191Z,-4.67
2018-02-08T05:49:40.119Z,-4.62
2018-02-08T05:50:43.101Z,-4.62
2018-02-08T05:51:46.022Z,-4.76
2018-02-08T05:52:48.960Z,-4.95
2018-02-08T05:53:51.908Z,-5.01
2018-02-08T05:54:55.259Z,-4.93
2018-02-08T05:55:58.213Z,-4.92
2018-02-08T05:57:01.129Z,-5.02
2018-02-08T05:58:03.999Z,-5.04
2018-02-08T05:59:06.874Z,-5.06
2018-02-08T06:00:09.784Z,-5.08
2018-02-08T06:01:13.077Z,-5.15
2018-02-08T06:02:15.973Z,-5.14
2018-02-08T06:03:18.889Z,-5.05
2018-02-08T06:04:21.749Z,-4.99
2018-02-08T06:05:24.636Z,-4.98
2018-02-08T06:06:27.560Z,-4.85
2018-02-08T06:07:30.945Z,-4.74
2018-02-08T06:08:33.927Z,-4.83
2018-02-08T06:09:36.863Z,-5.13
2018-02-08T06:10:39.804Z,-5.20
2018-02-08T06:11:42.746Z,-5.42
2018-02-08T06:12:45.821Z,-5.38
2018-02-08T06:13:49.230Z,-5.21
2018-02-08T06:14:52.179Z,-5.12
2018-02-08T06:15:55.153Z,-4.99
2018-02-08T06:16:58.161Z,-5.06
2018-02-08T06:18:02.080Z,-5.03
2018-02-08T06:19:05.007Z,-4.91
2018-02-08T06:20:08.286Z,-4.85
2018-02-08T06:21:11.226Z,-4.85
2018-02-08T06:22:14.144Z,-4.84
2018-02-08T06:23:17.018Z,-4.79
2018-02-08T06:24:20.067Z,-4.82
2018-02-08T06:25:23.031Z,-4.84
2018-02-08T06:26:26.537Z,-4.89
2018-02-08T06:27:29.494Z,-5.08
2018-02-08T06:28:32.476Z,-5.11
2018-02-08T06:29:35.464Z,-5.14
2018-02-08T06:30:38.530Z,-5.09
2018-02-08T06:31:41.522Z,-5.01
2018-02-08T06:32:44.924Z,-5.04
2018-02-08T06:33:47.840Z,-5.13
2018-02-08T06:34:50.815Z,-5.32
2018-02-08T06:35:53.751Z,-5.32
2018-02-08T06:36:56.705Z,-5.31
2018-02-08T06:37:59.710Z,-5.26
2018-02-08T06:39:02.994Z,-5.10
2018-02-08T06:40:05.996Z,-5.05
2018-02-08T06:41:08.934Z,-5.00
2018-02-08T06:42:11.864Z,-4.92
2018-02-08T06:43:14.892Z,-4.84
2018-02-08T06:44:17.857Z,-4.79
2018-02-08T06:45:21.236Z,-4.96
2018-02-08T06:46:24.198Z,-5.11
2018-02-08T06:47:27.199Z,-5.28
2018-02-08T06:48:30.122Z,-5.32
2018-02-08T06:49:33.051Z,-5.27
2018-02-08T06:50:36.005Z,-5.24
2018-02-08T06:51:39.208Z,-5.28
2018-02-08T06:52:42.190Z,-5.44
2018-02-08T06:53:45.160Z,-5.35
2018-02-08T06:54:48.090Z,-5.25
2018-02-08T06:55:51.037Z,-5.09
2018-02-08T06:56:53.976Z,-5.04
2018-02-08T06:57:57.356Z,-5.13
2018-02-08T06:59:00.303Z,-5.25
2018-02-08T07:00:03.355Z,-5.15
2018-02-08T07:01:06.400Z,-5.09
2018-02-08T07:02:09.367Z,-5.15
2018-02-08T07:03:12.357Z,-5.05
2018-02-08T07:04:15.854Z,-4.95
2018-02-08T07:05:18.844Z,-4.88
2018-02-08T07:06:21.853Z,-4.74
2018-02-08T07:07:24.813Z,-4.72
2018-02-08T07:08:27.917Z,-4.80
2018-02-08T07:09:30.865Z,-4.86
2018-02-08T07:10:34.316Z,-4.97
2018-02-08T07:11:37.276Z,-4.98
2018-02-08T07:12:40.279Z,-4.86
2018-02-08T07:13:43.203Z,-4.76
2018-02-08T07:14:46.177Z,-4.95
2018-02-08T07:15:49.204Z,-4.99
2018-02-08T07:16:52.573Z,-5.03
2018-02-08T07:17:55.548Z,-4.94
2018-02-08T07:18:58.541Z,-4.75
2018-02-08T07:20:01.478Z,-4.67
2018-02-08T07:21:04.473Z,-4.69
2018-02-08T07:22:07.389Z,-4.53
2018-02-08T07:23:10.824Z,-4.52
2018-02-08T07:24:13.795Z,-4.76
2018-02-08T07:25:17.137Z,-4.82
2018-02-08T07:26:20.143Z,-4.75
2018-02-08T07:27:23.318Z,-4.70
2018-02-08T07:28:26.303Z,-4.78
2018-02-08T07:29:29.685Z,-4.79
2018-02-08T07:30:32.621Z,-4.72
2018-02-08T07:31:35.580Z,-4.55
2018-02-08T07:32:38.578Z,-4.55
2018-02-08T07:33:41.595Z,-4.57
2018-02-08T07:34:44.583Z,-4.66
2018-02-08T07:35:47.886Z,-4.76
2018-02-08T07:36:50.832Z,-4.62
2018-02-08T07:37:53.795Z,-4.85
2018-02-08T07:38:56.737Z,-4.96
2018-02-08T07:40:00.043Z,-4.85
2018-02-08T07:41:03.033Z,-4.73
2018-02-08T07:42:06.414Z,-4.61
2018-02-08T07:43:09.385Z,-4.65
2018-02-08T07:44:12.335Z,-4.61
2018-02-08T07:45:15.340Z,-4.59
2018-02-08T07:46:18.357Z,-4.77
2018-02-08T07:47:21.336Z,-4.72
2018-02-08T07:48:25.302Z,-4.55
2018-02-08T07:49:28.287Z,-4.40
2018-02-08T07:50:31.362Z,-4.62
2018-02-08T07:51:34.285Z,-4.57
2018-02-08T07:52:37.281Z,-4.53
2018-02-08T07:53:40.223Z,-4.69
2018-02-08T07:54:43.574Z,-4.84
2018-02-08T07:55:46.522Z,-4.82
2018-02-08T07:56:49.646Z,-4.66
2018-02-08T07:57:52.604Z,-4.59
2018-02-08T07:58:55.598Z,-4.61
2018-02-08T07:59:58.571Z,-4.72
2018-02-08T08:01:01.961Z,-4.72
2018-02-08T08:02:04.885Z,-4.85
2018-02-08T08:03:07.771Z,-4.79
2018-02-08T08:04:11.089Z,-4.80
2018-02-08T08:05:14.088Z,-4.94
2018-02-08T08:06:17.136Z,-4.95
2018-02-08T08:07:20.653Z,-4.82
2018-02-08T08:08:23.643Z,-4.90
2018-02-08T08:09:28.044Z,-4.75
2018-02-08T08:10:32.205Z,-4.58
2018-02-08T08:11:35.171Z,-4.38
2018-02-08T08:12:38.163Z,-4.26
2018-02-08T08:13:41.595Z,-4.32
2018-02-08T08:14:44.576Z,-4.46
2018-02-08T08:15:47.540Z,-4.71
2018-02-08T08:16:50.533Z,-4.75
2018-02-08T08:17:54.048Z,-4.78
2018-02-08T08:18:57.067Z,-4.79
2018-02-08T08:20:00.477Z,-4.73
2018-02-08T08:21:03.381Z,-4.67
2018-02-08T08:22:06.230Z,-4.49
2018-02-08T08:23:09.225Z,-4.32
2018-02-08T08:24:12.165Z,-4.24
2018-02-08T08:25:15.087Z,-4.10
2018-02-08T08:26:18.431Z,-4.02
2018-02-08T08:27:21.431Z,-3.89
2018-02-08T08:28:24.374Z,-3.83
2018-02-08T08:29:27.320Z,-3.92
2018-02-08T08:30:30.334Z,-3.92
2018-02-08T08:31:33.541Z,-3.95
2018-02-08T08:32:36.950Z,-3.93
2018-02-08T08:33:39.907Z,-3.92
2018-02-08T08:34:42.886Z,-3.89
2018-02-08T08:35:46.011Z,-3.94
2018-02-08T08:36:48.983Z,-3.94
2018-02-08T08:37:52.004Z,-3.97
2018-02-08T08:38:55.395Z,-3.93
2018-02-08T08:39:58.434Z,-3.87
2018-02-08T08:41:01.454Z,-3.80
2018-02-08T08:42:04.437Z,-3.75
2018-02-08T08:43:07.412Z,-3.76
2018-02-08T08:44:10.369Z,-3.82
2018-02-08T08:45:13.627Z,-4.04
2018-02-08T08:46:16.749Z,-4.00
2018-02-08T08:47:19.732Z,-3.94
2018-02-08T08:48:22.753Z,-3.82
2018-02-08T08:49:25.705Z,-3.69
2018-02-08T08:50:28.656Z,-3.96
2018-02-08T08:51:31.615Z,-4.03
2018-02-08T08:52:34.618Z,-3.96
2018-02-08T08:53:37.604Z,-3.85
2018-02-08T08:54:40.734Z,-3.79
2018-02-08T08:55:43.721Z,-3.67
2018-02-08T08:56:47.144Z,-3.62
2018-02-08T08:57:50.126Z,-3.70
2018-02-08T08:58:53.120Z,-3.78
2018-02-08T08:59:56.112Z,-4.05
2018-02-08T09:00:59.122Z,-4.08
2018-02-08T09:02:02.098Z,-4.12
2018-02-08T09:03:05.597Z,-4.13
2018-02-08T09:04:08.622Z,-4.05
2018-02-08T09:05:11.622Z,-3.97
2018-02-08T09:06:14.612Z,-4.05
2018-02-08T09:07:17.700Z,-4.01
2018-02-08T09:08:20.652Z,-3.83
2018-02-08T09:09:24.157Z,-3.85
2018-02-08T09:10:27.158Z,-3.89
2018-02-08T09:11:31.212Z,-3.73
2018-02-08T09:12:34.234Z,-3.94
2018-02-08T09:13:37.197Z,-3.85
2018-02-08T09:14:40.180Z,-3.75
2018-02-08T09:15:43.507Z,-3.67
2018-02-08T09:16:46.490Z,-3.35
2018-02-08T09:17:49.499Z,-3.34
2018-02-08T09:18:52.447Z,-3.08
2018-02-08T09:19:55.442Z,-2.93
2018-02-08T09:20:58.412Z,-3.10
2018-02-08T09:22:01.804Z,-3.28
2018-02-08T09:23:05.069Z,-3.59
2018-02-08T09:24:08.290Z,-3.58
2018-02-08T09:25:11.523Z,-3.61
2018-02-08T09:26:14.484Z,-3.43
2018-02-08T09:27:17.538Z,-3.58
2018-02-08T09:28:20.492Z,-3.35
2018-02-08T09:29:23.451Z,-3.34
2018-02-08T09:30:26.473Z,-3.07
2018-02-08T09:31:29.481Z,-2.89
2018-02-08T09:32:32.493Z,-2.77
2018-02-08T09:33:35.766Z,-2.66
2018-02-08T09:34:39.147Z,-2.58
2018-02-08T09:35:42.235Z,-2.63
2018-02-08T09:36:45.197Z,-2.71
2018-02-08T09:37:48.121Z,-2.74
2018-02-08T09:38:51.012Z,-3.36
2018-02-08T09:39:54.179Z,-3.16
2018-02-08T09:40:57.115Z,-3.29
2018-02-08T09:42:00.031Z,-3.22
2018-02-08T09:43:02.955Z,-2.82
2018-02-08T09:44:05.876Z,-2.73
2018-02-08T09:45:08.852Z,-2.55
2018-02-08T09:46:12.157Z,-2.54
2018-02-08T09:47:15.057Z,-2.47
2018-02-08T09:48:17.958Z,-2.26
2018-02-08T09:49:20.876Z,-2.04
2018-02-08T09:50:23.842Z,-1.87
2018-02-08T09:51:26.742Z,-1.92
2018-02-08T09:52:29.958Z,-1.49
2018-02-08T09:53:32.925Z,-1.90
2018-02-08T09:54:35.809Z,-2.48
2018-02-08T09:55:38.759Z,-2.49
2018-02-08T09:56:41.760Z,-2.51
2018-02-08T09:57:44.704Z,-1.92
2018-02-08T09:58:47.807Z,-1.96
2018-02-08T09:59:50.767Z,-2.15
2018-02-08T10:00:53.804Z,-1.86
2018-02-08T10:01:56.746Z,-2.13
2018-02-08T10:02:59.745Z,-2.37
2018-02-08T10:04:02.724Z,-2.18
2018-02-08T10:05:06.117Z,-2.02
2018-02-08T10:06:09.050Z,-1.98
2018-02-08T10:07:12.043Z,-1.92
2018-02-08T10:08:14.937Z,-1.67
2018-02-08T10:09:17.903Z,-1.51
2018-02-08T10:10:21.574Z,-1.48
2018-02-08T10:11:24.988Z,-1.44
2018-02-08T10:12:28.516Z,-1.24
2018-02-08T10:13:31.515Z,-1.70
2018-02-08T10:14:36.469Z,-1.41
2018-02-08T10:15:39.557Z,-0.73
2018-02-08T10:16:42.497Z,-0.44
2018-02-08T10:17:45.974Z,-0.15
2018-02-08T10:18:49.531Z,0.21
2018-02-08T10:19:52.523Z,0.46
2018-02-08T10:20:55.503Z,0.60
2018-02-08T10:21:58.521Z,0.73
2018-02-08T10:23:01.572Z,0.78
2018-02-08T10:24:05.043Z,0.62
2018-02-08T10:25:08.067Z,0.38
2018-02-08T10:26:11.022Z,0.44
2018-02-08T10:27:14.024Z,0.30
2018-02-08T10:28:16.982Z,-0.12
2018-02-08T10:29:19.945Z,0.32
2018-02-08T10:30:23.399Z,0.47
2018-02-08T10:31:26.460Z,1.22
2018-02-08T10:32:29.422Z,1.06
2018-02-08T10:33:32.379Z,0.71
2018-02-08T10:34:35.327Z,1.05
2018-02-08T10:35:38.284Z,0.94
2018-02-08T10:36:41.732Z,0.47
2018-02-08T10:37:44.731Z,0.66
2018-02-08T10:38:47.717Z,0.96
2018-02-08T10:39:51.182Z,1.07
2018-02-08T10:40:54.194Z,1.26
2018-02-08T10:41:57.181Z,1.53
2018-02-08T10:43:00.201Z,1.10
2018-02-08T10:44:03.220Z,0.56
2018-02-08T10:45:06.160Z,0.05
2018-02-08T10:46:09.118Z,0.19
2018-02-08T10:47:12.478Z,0.33
2018-02-08T10:48:15.765Z,0.72
2018-02-08T10:49:18.745Z,0.30
2018-02-08T10:50:21.981Z,0.04
2018-02-08T10:51:25.015Z,0.03
2018-02-08T10:52:28.029Z,0.19
2018-02-08T10:53:31.560Z,-0.23
2018-02-08T10:54:35.155Z,-0.39
2018-02-08T10:55:38.221Z,0.02
2018-02-08T10:56:41.189Z,0.38
2018-02-08T10:57:44.211Z,-0.13
2018-02-08T10:58:47.268Z,0.05
2018-02-08T10:59:50.747Z,0.06
2018-02-08T11:00:53.748Z,-0.30
2018-02-08T11:01:56.751Z,-0.17
2018-02-08T11:02:59.690Z,-0.38
2018-02-08T11:04:02.738Z,-0.11
2018-02-08T11:05:05.757Z,0.39
2018-02-08T11:06:09.059Z,0.87
2018-02-08T11:07:12.081Z,0.65
2018-02-08T11:08:15.122Z,0.69
2018-02-08T11:09:18.119Z,0.79
2018-02-08T11:10:21.071Z,0.45
2018-02-08T11:11:24.079Z,0.19
2018-02-08T11:12:27.598Z,0.09
2018-02-08T11:13:30.570Z,0.10
2018-02-08T11:14:34.511Z,0.72
2018-02-08T11:15:37.511Z,1.58
2018-02-08T11:16:40.473Z,1.62
2018-02-08T11:17:43.567Z,1.64
2018-02-08T11:18:47.043Z,1.35
2018-02-08T11:19:50.004Z,1.19
2018-02-08T11:20:53.001Z,1.18
2018-02-08T11:21:55.960Z,1.08
2018-02-08T11:22:59.047Z,1.61
2018-02-08T11:24:02.028Z,2.08
2018-02-08T11:25:05.545Z,2.20
2018-02-08T11:26:08.498Z,2.71
2018-02-08T11:27:12.102Z,2.53
2018-02-08T11:28:15.051Z,2.39
2018-02-08T11:29:18.012Z,2.54
2018-02-08T11:30:21.029Z,1.94
2018-02-08T11:31:25.337Z,1.62
2018-02-08T11:32:28.196Z,1.87
2018-02-08T11:33:31.233Z,2.19
2018-02-08T11:34:34.207Z,2.84
2018-02-08T11:35:37.096Z,2.98
2018-02-08T11:36:40.011Z,2.91
2018-02-08T11:37:43.994Z,2.27
2018-02-08T11:38:46.908Z,2.17
2018-02-08T11:39:49.813Z,2.32
2018-02-08T11:40:52.759Z,2.40
2018-02-08T11:41:55.657Z,2.16
2018-02-08T11:42:58.768Z,2.42
2018-02-08T11:44:02.198Z,3.17
2018-02-08T11:45:05.199Z,3.86
2018-02-08T11:46:08.109Z,4.31
2018-02-08T11:47:11.014Z,4.44
2018-02-08T11:48:13.972Z,4.00
2018-02-08T11:49:16.956Z,3.35
2018-02-08T11:50:20.470Z,2.53
2018-02-08T11:51:23.618Z,2.57
2018-02-08T11:52:26.682Z,2.85
2018-02-08T11:53:29.610Z,3.32
2018-02-08T11:54:32.534Z,3.20
2018-02-08T11:55:35.502Z,2.90
2018-02-08T11:56:38.901Z,3.18
2018-02-08T11:57:41.812Z,3.55
2018-02-08T11:58:44.745Z,3.56
2018-02-08T11:59:48.166Z,3.52
2018-02-08T12:00:51.180Z,3.00
2018-02-08T12:01:54.381Z,2.77
2018-02-08T12:02:57.826Z,2.97
2018-02-08T12:04:00.789Z,3.56
2018-02-08T12:05:03.805Z,3.57
2018-02-08T12:06:06.813Z,3.30
2018-02-08T12:07:09.907Z,3.39
2018-02-08T12:08:12.884Z,3.70
2018-02-08T12:09:16.417Z,3.78
2018-02-08T12:10:19.327Z,3.44
2018-02-08T12:11:22.291Z,3.26
2018-02-08T12:12:25.885Z,3.21
2018-02-08T12:13:28.827Z,3.88
2018-02-08T12:14:31.737Z,3.89
2018-02-08T12:15:35.105Z,3.67
2018-02-08T12:16:38.049Z,3.17
2018-02-08T12:17:41.080Z,3.10
2018-02-08T12:18:44.080Z,3.30
2018-02-08T12:19:47.066Z,3.91
2018-02-08T12:20:50.320Z,4.69
2018-02-08T12:21:53.618Z,5.32
2018-02-08T12:22:56.487Z,5.88
2018-02-08T12:23:59.347Z,6.15
2018-02-08T12:25:02.283Z,6.08
2018-02-08T12:26:05.246Z,6.00
2018-02-08T12:27:08.350Z,5.66
2018-02-08T12:28:11.274Z,5.55
2018-02-08T12:29:14.231Z,5.23
2018-02-08T12:30:17.230Z,4.68
2018-02-08T12:31:20.169Z,4.27
2018-02-08T12:32:23.047Z,4.87
2018-02-08T12:33:26.516Z,4.94
2018-02-08T12:34:29.498Z,4.89
2018-02-08T12:35:32.512Z,5.07
2018-02-08T12:36:35.427Z,5.05
2018-02-08T12:37:38.421Z,5.07
2018-02-08T12:38:41.521Z,5.12
2018-02-08T12:39:44.894Z,5.94
2018-02-08T12:40:47.947Z,6.53
2018-02-08T12:41:50.955Z,7.17
2018-02-08T12:42:53.912Z,7.41
2018-02-08T12:43:56.877Z,7.86
2018-02-08T12:44:59.809Z,6.75
2018-02-08T12:46:03.166Z,6.46
2018-02-08T12:47:06.339Z,6.29
2018-02-08T12:48:09.355Z,6.16
2018-02-08T12:49:12.371Z,6.09
2018-02-08T12:50:15.397Z,5.66
2018-02-08T12:51:18.309Z,5.08
2018-02-08T12:52:21.658Z,4.59
2018-02-08T12:53:24.636Z,4.17
2018-02-08T12:54:27.656Z,4.52
2018-02-08T12:55:30.620Z,5.24
2018-02-08T12:56:33.730Z,5.64
2018-02-08T12:57:36.772Z,6.06
2018-02-08T12:58:40.146Z,6.36
2018-02-08T12:59:43.393Z,6.29
2018-02-08T13:00:46.545Z,6.54
2018-02-08T13:01:49.485Z,5.56
2018-02-08T13:02:52.523Z,5.13
2018-02-08T13:03:55.584Z,4.85
2018-02-08T13:04:59.040Z,5.13
2018-02-08T13:06:02.018Z,5.81
2018-02-08T13:07:05.000Z,5.62
2018-02-08T13:08:07.980Z,5.24
2018-02-08T13:09:10.937Z,5.06
2018-02-08T13:10:13.880Z,4.92
2018-02-08T13:11:17.164Z,4.64
2018-02-08T13:12:20.124Z,5.11
2018-02-08T13:13:23.119Z,5.37
2018-02-08T13:14:26.113Z,4.65
2018-02-08T13:15:29.130Z,4.11
2018-02-08T13:16:32.124Z,4.37
2018-02-08T13:17:35.559Z,4.39
2018-02-08T13:18:38.580Z,4.74
2018-02-08T13:19:41.608Z,5.45
2018-02-08T13:20:44.579Z,6.36
2018-02-08T13:21:47.556Z,6.65
2018-02-08T13:22:50.519Z,6.74
2018-02-08T13:23:53.777Z,6.61
2018-02-08T13:24:56.803Z,6.58
2018-02-08T13:25:59.884Z,5.94
2018-02-08T13:27:02.838Z,6.13
2018-02-08T13:28:05.788Z,5.79
2018-02-08T13:29:08.737Z,5.13
2018-02-08T13:30:12.236Z,4.85
2018-02-08T13:31:17.998Z,4.80
2018-02-08T13:32:21.499Z,4.95
2018-02-08T13:33:24.442Z,5.48
2018-02-08T13:34:27.488Z,4.94
2018-02-08T13:35:30.431Z,4.91
2018-02-08T13:36:33.951Z,5.82
2018-02-08T13:37:37.072Z,6.62
2018-02-08T13:38:40.193Z,6.74